sensor_id;sensor_type;location;lat;lon;timestamp;P1;durP1;ratioP1;P2;durP2;ratioP2
1995;SDS011;38556;47.068;15.408;2023-04-24T00:00:02;22.20;;;20.73;;
1995;SDS011;38556;47.068;15.408;2023-04-24T00:02:30;23.10;;;21.70;;
1995;SDS011;38556;47.068;15.408;2023-04-24T00:04:59;22.67;;;21.35;;
1995;SDS011;38556;47.068;15.408;2023-04-24T00:07:28;22.65;;;21.35;;
1995;SDS011;38556;47.068;15.408;2023-04-24T00:09:55;24.73;;;23.15;;
1995;SDS011;38556;47.068;15.408;2023-04-24T00:12:23;22.33;;;21.05;;
1995;SDS011;38556;47.068;15.408;2023-04-24T00:14:51;22.98;;;21.67;;
1995;SDS011;38556;47.068;15.408;2023-04-24T00:17:18;21.80;;;20.58;;
1995;SDS011;38556;47.068;15.408;2023-04-24T00:19:46;22.50;;;21.08;;
1995;SDS011;38556;47.068;15.408;2023-04-24T00:22:15;22.08;;;20.88;;
1995;SDS011;38556;47.068;15.408;2023-04-24T00:24:42;21.33;;;20.02;;
1995;SDS011;38556;47.068;15.408;2023-04-24T00:27:10;22.30;;;20.90;;
1995;SDS011;38556;47.068;15.408;2023-04-24T00:29:37;21.92;;;20.73;;
1995;SDS011;38556;47.068;15.408;2023-04-24T00:32:04;22.20;;;20.85;;
1995;SDS011;38556;47.068;15.408;2023-04-24T00:34:31;21.75;;;20.45;;
1995;SDS011;38556;47.068;15.408;2023-04-24T00:36:58;22.92;;;21.63;;
1995;SDS011;38556;47.068;15.408;2023-04-24T00:39:27;21.30;;;19.98;;
1995;SDS011;38556;47.068;15.408;2023-04-24T00:41:54;20.52;;;19.42;;
1995;SDS011;38556;47.068;15.408;2023-04-24T00:44:22;20.70;;;19.60;;
1995;SDS011;38556;47.068;15.408;2023-04-24T00:46:49;19.65;;;18.60;;
1995;SDS011;38556;47.068;15.408;2023-04-24T00:49:19;21.15;;;19.98;;
1995;SDS011;38556;47.068;15.408;2023-04-24T00:51:48;20.25;;;19.05;;
1995;SDS011;38556;47.068;15.408;2023-04-24T00:54:16;20.05;;;18.55;;
1995;SDS011;38556;47.068;15.408;2023-04-24T00:56:45;20.02;;;18.85;;
1995;SDS011;38556;47.068;15.408;2023-04-24T00:59:13;19.75;;;18.73;;
1995;SDS011;38556;47.068;15.408;2023-04-24T01:01:42;20.20;;;19.10;;
1995;SDS011;38556;47.068;15.408;2023-04-24T01:04:10;19.60;;;18.60;;
1995;SDS011;38556;47.068;15.408;2023-04-24T01:06:39;21.60;;;20.17;;
1995;SDS011;38556;47.068;15.408;2023-04-24T01:09:08;20.13;;;19.02;;
1995;SDS011;38556;47.068;15.408;2023-04-24T01:11:37;20.50;;;19.42;;
1995;SDS011;38556;47.068;15.408;2023-04-24T01:14:05;20.58;;;19.25;;
1995;SDS011;38556;47.068;15.408;2023-04-24T01:16:33;21.17;;;19.98;;
1995;SDS011;38556;47.068;15.408;2023-04-24T01:19:01;22.08;;;20.83;;
1995;SDS011;38556;47.068;15.408;2023-04-24T01:21:29;21.05;;;19.75;;
1995;SDS011;38556;47.068;15.408;2023-04-24T01:24:01;20.13;;;19.02;;
1995;SDS011;38556;47.068;15.408;2023-04-24T01:26:28;19.10;;;18.00;;
1995;SDS011;38556;47.068;15.408;2023-04-24T01:28:55;20.52;;;19.33;;
1995;SDS011;38556;47.068;15.408;2023-04-24T01:31:23;21.17;;;19.88;;
1995;SDS011;38556;47.068;15.408;2023-04-24T01:33:51;21.10;;;19.85;;
1995;SDS011;38556;47.068;15.408;2023-04-24T01:36:19;21.05;;;19.75;;
1995;SDS011;38556;47.068;15.408;2023-04-24T01:38:47;21.65;;;20.42;;
1995;SDS011;38556;47.068;15.408;2023-04-24T01:41:16;21.15;;;19.67;;
1995;SDS011;38556;47.068;15.408;2023-04-24T01:43:43;20.55;;;19.35;;
1995;SDS011;38556;47.068;15.408;2023-04-24T01:46:10;19.60;;;18.40;;
1995;SDS011;38556;47.068;15.408;2023-04-24T01:48:37;19.17;;;18.08;;
1995;SDS011;38556;47.068;15.408;2023-04-24T01:51:05;19.60;;;18.25;;
1995;SDS011;38556;47.068;15.408;2023-04-24T01:53:32;20.55;;;19.35;;
1995;SDS011;38556;47.068;15.408;2023-04-24T01:55:59;21.50;;;20.20;;
1995;SDS011;38556;47.068;15.408;2023-04-24T01:58:29;23.80;;;22.15;;
1995;SDS011;38556;47.068;15.408;2023-04-24T02:00:56;22.05;;;20.65;;
1995;SDS011;38556;47.068;15.408;2023-04-24T02:03:24;24.77;;;22.98;;
1995;SDS011;38556;47.068;15.408;2023-04-24T02:05:52;23.60;;;22.00;;
1995;SDS011;38556;47.068;15.408;2023-04-24T02:08:19;22.38;;;20.77;;
1995;SDS011;38556;47.068;15.408;2023-04-24T02:10:46;23.40;;;22.00;;
1995;SDS011;38556;47.068;15.408;2023-04-24T02:13:14;23.40;;;21.90;;
1995;SDS011;38556;47.068;15.408;2023-04-24T02:15:42;24.55;;;23.00;;
1995;SDS011;38556;47.068;15.408;2023-04-24T02:18:10;25.58;;;23.77;;
1995;SDS011;38556;47.068;15.408;2023-04-24T02:20:38;20.52;;;19.23;;
1995;SDS011;38556;47.068;15.408;2023-04-24T02:23:05;21.45;;;20.15;;
1995;SDS011;38556;47.068;15.408;2023-04-24T02:25:33;20.80;;;19.50;;
1995;SDS011;38556;47.068;15.408;2023-04-24T02:28:00;20.92;;;19.83;;
1995;SDS011;38556;47.068;15.408;2023-04-24T02:30:27;20.05;;;19.05;;
1995;SDS011;38556;47.068;15.408;2023-04-24T02:32:56;22.38;;;20.98;;
1995;SDS011;38556;47.068;15.408;2023-04-24T02:35:23;21.05;;;19.50;;
1995;SDS011;38556;47.068;15.408;2023-04-24T02:37:51;22.17;;;20.77;;
1995;SDS011;38556;47.068;15.408;2023-04-24T02:40:18;20.60;;;19.40;;
1995;SDS011;38556;47.068;15.408;2023-04-24T02:42:45;19.88;;;18.88;;
1995;SDS011;38556;47.068;15.408;2023-04-24T02:45:12;20.50;;;19.40;;
1995;SDS011;38556;47.068;15.408;2023-04-24T02:47:40;19.42;;;18.33;;
1995;SDS011;38556;47.068;15.408;2023-04-24T02:50:08;19.45;;;18.55;;
1995;SDS011;38556;47.068;15.408;2023-04-24T02:52:36;19.65;;;18.40;;
1995;SDS011;38556;47.068;15.408;2023-04-24T02:55:04;21.55;;;20.05;;
1995;SDS011;38556;47.068;15.408;2023-04-24T02:57:33;21.02;;;19.73;;
1995;SDS011;38556;47.068;15.408;2023-04-24T03:00:00;19.83;;;18.73;;
1995;SDS011;38556;47.068;15.408;2023-04-24T03:02:28;20.10;;;19.00;;
1995;SDS011;38556;47.068;15.408;2023-04-24T03:04:55;20.17;;;19.08;;
1995;SDS011;38556;47.068;15.408;2023-04-24T03:07:24;22.13;;;20.92;;
1995;SDS011;38556;47.068;15.408;2023-04-24T03:09:52;23.98;;;22.17;;
1995;SDS011;38556;47.068;15.408;2023-04-24T03:12:19;24.80;;;23.27;;
1995;SDS011;38556;47.068;15.408;2023-04-24T03:14:49;26.25;;;24.55;;
1995;SDS011;38556;47.068;15.408;2023-04-24T03:17:16;22.95;;;21.55;;
1995;SDS011;38556;47.068;15.408;2023-04-24T03:19:44;22.85;;;21.00;;
1995;SDS011;38556;47.068;15.408;2023-04-24T03:22:11;23.13;;;21.50;;
1995;SDS011;38556;47.068;15.408;2023-04-24T03:24:40;20.98;;;19.58;;
1995;SDS011;38556;47.068;15.408;2023-04-24T03:27:07;21.52;;;20.30;;
1995;SDS011;38556;47.068;15.408;2023-04-24T03:29:34;22.23;;;20.63;;
1995;SDS011;38556;47.068;15.408;2023-04-24T03:32:01;21.83;;;20.48;;
1995;SDS011;38556;47.068;15.408;2023-04-24T03:34:28;22.77;;;21.27;;
1995;SDS011;38556;47.068;15.408;2023-04-24T03:36:56;23.02;;;21.48;;
1995;SDS011;38556;47.068;15.408;2023-04-24T03:39:23;22.15;;;20.67;;
1995;SDS011;38556;47.068;15.408;2023-04-24T03:41:52;23.30;;;21.90;;
1995;SDS011;38556;47.068;15.408;2023-04-24T03:44:19;23.23;;;21.83;;
1995;SDS011;38556;47.068;15.408;2023-04-24T03:46:46;23.08;;;21.73;;
1995;SDS011;38556;47.068;15.408;2023-04-24T03:49:14;23.35;;;22.05;;
1995;SDS011;38556;47.068;15.408;2023-04-24T03:51:41;24.25;;;22.65;;
1995;SDS011;38556;47.068;15.408;2023-04-24T03:54:08;22.33;;;21.02;;
1995;SDS011;38556;47.068;15.408;2023-04-24T03:56:36;22.67;;;21.30;;
1995;SDS011;38556;47.068;15.408;2023-04-24T03:59:04;23.40;;;21.67;;
1995;SDS011;38556;47.068;15.408;2023-04-24T04:01:32;23.92;;;22.25;;
1995;SDS011;38556;47.068;15.408;2023-04-24T04:04:01;23.95;;;22.35;;
1995;SDS011;38556;47.068;15.408;2023-04-24T04:06:29;23.35;;;21.90;;
1995;SDS011;38556;47.068;15.408;2023-04-24T04:08:57;23.25;;;21.88;;
1995;SDS011;38556;47.068;15.408;2023-04-24T04:11:25;24.23;;;22.50;;
1995;SDS011;38556;47.068;15.408;2023-04-24T04:13:52;24.40;;;22.90;;
1995;SDS011;38556;47.068;15.408;2023-04-24T04:16:22;23.40;;;22.00;;
1995;SDS011;38556;47.068;15.408;2023-04-24T04:18:50;25.23;;;23.63;;
1995;SDS011;38556;47.068;15.408;2023-04-24T04:21:17;24.30;;;22.98;;
1995;SDS011;38556;47.068;15.408;2023-04-24T04:23:45;24.20;;;22.50;;
1995;SDS011;38556;47.068;15.408;2023-04-24T04:26:12;26.75;;;25.25;;
1995;SDS011;38556;47.068;15.408;2023-04-24T04:28:39;26.00;;;24.40;;
1995;SDS011;38556;47.068;15.408;2023-04-24T04:31:07;26.25;;;24.65;;
1995;SDS011;38556;47.068;15.408;2023-04-24T04:33:36;26.27;;;24.67;;
1995;SDS011;38556;47.068;15.408;2023-04-24T04:36:04;25.08;;;23.58;;
1995;SDS011;38556;47.068;15.408;2023-04-24T04:38:32;26.35;;;24.73;;
1995;SDS011;38556;47.068;15.408;2023-04-24T04:41:00;25.25;;;23.75;;
1995;SDS011;38556;47.068;15.408;2023-04-24T04:43:28;25.92;;;24.25;;
1995;SDS011;38556;47.068;15.408;2023-04-24T04:45:57;26.15;;;24.45;;
1995;SDS011;38556;47.068;15.408;2023-04-24T04:48:26;25.90;;;23.98;;
1995;SDS011;38556;47.068;15.408;2023-04-24T04:50:55;26.40;;;24.75;;
1995;SDS011;38556;47.068;15.408;2023-04-24T04:53:23;25.77;;;24.17;;
1995;SDS011;38556;47.068;15.408;2023-04-24T04:55:50;25.33;;;23.73;;
1995;SDS011;38556;47.068;15.408;2023-04-24T04:58:18;25.60;;;23.98;;
1995;SDS011;38556;47.068;15.408;2023-04-24T05:00:45;26.20;;;24.52;;
1995;SDS011;38556;47.068;15.408;2023-04-24T05:03:13;26.42;;;24.67;;
1995;SDS011;38556;47.068;15.408;2023-04-24T05:05:40;24.60;;;23.05;;
1995;SDS011;38556;47.068;15.408;2023-04-24T05:08:09;24.92;;;23.15;;
1995;SDS011;38556;47.068;15.408;2023-04-24T05:10:36;26.58;;;24.98;;
1995;SDS011;38556;47.068;15.408;2023-04-24T05:13:03;27.25;;;25.45;;
1995;SDS011;38556;47.068;15.408;2023-04-24T05:15:31;27.38;;;25.48;;
1995;SDS011;38556;47.068;15.408;2023-04-24T05:17:58;28.20;;;26.17;;
1995;SDS011;38556;47.068;15.408;2023-04-24T05:20:26;27.30;;;25.27;;
1995;SDS011;38556;47.068;15.408;2023-04-24T05:22:53;28.08;;;26.27;;
1995;SDS011;38556;47.068;15.408;2023-04-24T05:25:21;26.73;;;25.00;;
1995;SDS011;38556;47.068;15.408;2023-04-24T05:27:49;27.85;;;25.85;;
1995;SDS011;38556;47.068;15.408;2023-04-24T05:30:16;30.75;;;28.63;;
1995;SDS011;38556;47.068;15.408;2023-04-24T05:32:43;26.40;;;24.55;;
1995;SDS011;38556;47.068;15.408;2023-04-24T05:35:11;27.17;;;25.38;;
1995;SDS011;38556;47.068;15.408;2023-04-24T05:37:38;28.98;;;27.08;;
1995;SDS011;38556;47.068;15.408;2023-04-24T05:40:06;27.92;;;25.92;;
1995;SDS011;38556;47.068;15.408;2023-04-24T05:42:36;27.60;;;25.58;;
1995;SDS011;38556;47.068;15.408;2023-04-24T05:45:03;28.23;;;26.35;;
1995;SDS011;38556;47.068;15.408;2023-04-24T05:47:31;27.65;;;25.75;;
1995;SDS011;38556;47.068;15.408;2023-04-24T05:49:58;28.60;;;26.80;;
1995;SDS011;38556;47.068;15.408;2023-04-24T05:52:25;34.88;;;32.42;;
1995;SDS011;38556;47.068;15.408;2023-04-24T05:54:53;29.38;;;27.17;;
1995;SDS011;38556;47.068;15.408;2023-04-24T05:57:20;28.25;;;26.35;;
1995;SDS011;38556;47.068;15.408;2023-04-24T05:59:49;28.40;;;26.63;;
1995;SDS011;38556;47.068;15.408;2023-04-24T06:02:16;29.23;;;27.23;;
1995;SDS011;38556;47.068;15.408;2023-04-24T06:04:44;27.05;;;25.20;;
1995;SDS011;38556;47.068;15.408;2023-04-24T06:07:12;29.80;;;27.80;;
1995;SDS011;38556;47.068;15.408;2023-04-24T06:09:39;30.20;;;28.27;;
1995;SDS011;38556;47.068;15.408;2023-04-24T06:12:06;28.52;;;26.58;;
1995;SDS011;38556;47.068;15.408;2023-04-24T06:14:34;28.30;;;26.30;;
1995;SDS011;38556;47.068;15.408;2023-04-24T06:17:03;29.05;;;27.08;;
1995;SDS011;38556;47.068;15.408;2023-04-24T06:19:30;29.30;;;27.15;;
1995;SDS011;38556;47.068;15.408;2023-04-24T06:21:57;30.20;;;28.15;;
1995;SDS011;38556;47.068;15.408;2023-04-24T06:24:26;30.70;;;28.40;;
1995;SDS011;38556;47.068;15.408;2023-04-24T06:26:55;32.05;;;29.73;;
1995;SDS011;38556;47.068;15.408;2023-04-24T06:29:22;30.95;;;28.80;;
1995;SDS011;38556;47.068;15.408;2023-04-24T06:31:50;32.08;;;29.88;;
1995;SDS011;38556;47.068;15.408;2023-04-24T06:34:18;30.88;;;28.65;;
1995;SDS011;38556;47.068;15.408;2023-04-24T06:36:46;34.92;;;32.63;;
1995;SDS011;38556;47.068;15.408;2023-04-24T06:39:13;32.78;;;30.58;;
1995;SDS011;38556;47.068;15.408;2023-04-24T06:41:41;33.90;;;31.33;;
1995;SDS011;38556;47.068;15.408;2023-04-24T06:44:08;34.55;;;32.15;;
1995;SDS011;38556;47.068;15.408;2023-04-24T06:46:35;36.08;;;33.05;;
1995;SDS011;38556;47.068;15.408;2023-04-24T06:49:03;36.60;;;33.90;;
1995;SDS011;38556;47.068;15.408;2023-04-24T06:51:32;34.75;;;31.67;;
1995;SDS011;38556;47.068;15.408;2023-04-24T06:53:59;32.17;;;29.83;;
1995;SDS011;38556;47.068;15.408;2023-04-24T06:56:27;33.08;;;30.67;;
1995;SDS011;38556;47.068;15.408;2023-04-24T06:58:55;33.38;;;30.75;;
1995;SDS011;38556;47.068;15.408;2023-04-24T07:01:22;32.58;;;29.98;;
1995;SDS011;38556;47.068;15.408;2023-04-24T07:03:50;34.42;;;31.83;;
1995;SDS011;38556;47.068;15.408;2023-04-24T07:06:18;32.67;;;30.20;;
1995;SDS011;38556;47.068;15.408;2023-04-24T07:08:49;31.33;;;28.88;;
1995;SDS011;38556;47.068;15.408;2023-04-24T07:11:16;36.72;;;34.10;;
1995;SDS011;38556;47.068;15.408;2023-04-24T07:13:44;31.52;;;29.17;;
1995;SDS011;38556;47.068;15.408;2023-04-24T07:16:11;32.55;;;30.00;;
1995;SDS011;38556;47.068;15.408;2023-04-24T07:18:39;33.80;;;31.13;;
1995;SDS011;38556;47.068;15.408;2023-04-24T07:21:06;31.98;;;29.67;;
1995;SDS011;38556;47.068;15.408;2023-04-24T07:23:33;32.08;;;29.85;;
1995;SDS011;38556;47.068;15.408;2023-04-24T07:26:02;33.67;;;31.40;;
1995;SDS011;38556;47.068;15.408;2023-04-24T07:28:30;31.80;;;29.35;;
1995;SDS011;38556;47.068;15.408;2023-04-24T07:30:57;30.60;;;28.52;;
1995;SDS011;38556;47.068;15.408;2023-04-24T07:33:25;31.60;;;29.17;;
1995;SDS011;38556;47.068;15.408;2023-04-24T07:35:52;32.00;;;29.83;;
1995;SDS011;38556;47.068;15.408;2023-04-24T07:38:20;31.13;;;29.02;;
1995;SDS011;38556;47.068;15.408;2023-04-24T07:40:47;34.13;;;31.63;;
1995;SDS011;38556;47.068;15.408;2023-04-24T07:43:17;30.42;;;28.42;;
1995;SDS011;38556;47.068;15.408;2023-04-24T07:45:44;31.83;;;29.48;;
1995;SDS011;38556;47.068;15.408;2023-04-24T07:48:11;30.85;;;28.98;;
1995;SDS011;38556;47.068;15.408;2023-04-24T07:50:41;30.52;;;28.42;;
1995;SDS011;38556;47.068;15.408;2023-04-24T07:53:09;32.47;;;30.25;;
1995;SDS011;38556;47.068;15.408;2023-04-24T07:55:36;30.52;;;28.10;;
1995;SDS011;38556;47.068;15.408;2023-04-24T07:58:04;32.78;;;30.20;;
1995;SDS011;38556;47.068;15.408;2023-04-24T08:00:33;33.92;;;30.55;;
1995;SDS011;38556;47.068;15.408;2023-04-24T08:03:00;31.67;;;29.67;;
1995;SDS011;38556;47.068;15.408;2023-04-24T08:05:28;30.10;;;28.17;;
1995;SDS011;38556;47.068;15.408;2023-04-24T08:07:56;32.08;;;29.92;;
1995;SDS011;38556;47.068;15.408;2023-04-24T08:10:23;30.55;;;28.55;;
1995;SDS011;38556;47.068;15.408;2023-04-24T08:12:51;32.03;;;29.88;;
1995;SDS011;38556;47.068;15.408;2023-04-24T08:15:18;32.33;;;30.10;;
1995;SDS011;38556;47.068;15.408;2023-04-24T08:17:47;32.45;;;30.02;;
1995;SDS011;38556;47.068;15.408;2023-04-24T08:20:15;33.15;;;30.60;;
1995;SDS011;38556;47.068;15.408;2023-04-24T08:22:43;32.20;;;29.95;;
1995;SDS011;38556;47.068;15.408;2023-04-24T08:25:12;34.28;;;31.63;;
1995;SDS011;38556;47.068;15.408;2023-04-24T08:27:40;31.33;;;29.20;;
1995;SDS011;38556;47.068;15.408;2023-04-24T08:30:08;41.35;;;38.00;;
1995;SDS011;38556;47.068;15.408;2023-04-24T08:32:35;30.13;;;28.13;;
1995;SDS011;38556;47.068;15.408;2023-04-24T08:35:05;27.88;;;26.08;;
1995;SDS011;38556;47.068;15.408;2023-04-24T08:37:35;29.73;;;27.83;;
1995;SDS011;38556;47.068;15.408;2023-04-24T08:40:03;30.00;;;27.95;;
1995;SDS011;38556;47.068;15.408;2023-04-24T08:42:37;27.08;;;25.55;;
1995;SDS011;38556;47.068;15.408;2023-04-24T08:45:06;31.27;;;29.15;;
1995;SDS011;38556;47.068;15.408;2023-04-24T08:47:35;36.22;;;33.80;;
1995;SDS011;38556;47.068;15.408;2023-04-24T08:50:06;32.70;;;30.70;;
1995;SDS011;38556;47.068;15.408;2023-04-24T08:52:34;31.70;;;29.80;;
1995;SDS011;38556;47.068;15.408;2023-04-24T08:55:02;35.97;;;33.67;;
1995;SDS011;38556;47.068;15.408;2023-04-24T08:57:31;28.75;;;27.05;;
1995;SDS011;38556;47.068;15.408;2023-04-24T09:00:01;48.22;;;44.47;;
1995;SDS011;38556;47.068;15.408;2023-04-24T09:02:29;27.05;;;25.38;;
1995;SDS011;38556;47.068;15.408;2023-04-24T09:05:00;26.67;;;25.05;;
1995;SDS011;38556;47.068;15.408;2023-04-24T09:07:29;26.70;;;24.95;;
1995;SDS011;38556;47.068;15.408;2023-04-24T09:09:59;26.55;;;25.00;;
1995;SDS011;38556;47.068;15.408;2023-04-24T09:12:28;25.88;;;24.45;;
1995;SDS011;38556;47.068;15.408;2023-04-24T09:14:56;23.75;;;22.38;;
1995;SDS011;38556;47.068;15.408;2023-04-24T09:17:23;21.40;;;20.30;;
1995;SDS011;38556;47.068;15.408;2023-04-24T09:19:54;21.50;;;20.40;;
1995;SDS011;38556;47.068;15.408;2023-04-24T09:22:21;18.95;;;18.15;;
1995;SDS011;38556;47.068;15.408;2023-04-24T09:24:52;19.27;;;18.48;;
1995;SDS011;38556;47.068;15.408;2023-04-24T09:27:28;18.60;;;17.80;;
1995;SDS011;38556;47.068;15.408;2023-04-24T09:29:56;19.13;;;18.23;;
1995;SDS011;38556;47.068;15.408;2023-04-24T09:32:24;18.95;;;18.15;;
1995;SDS011;38556;47.068;15.408;2023-04-24T09:35:04;19.15;;;18.25;;
1995;SDS011;38556;47.068;15.408;2023-04-24T09:37:37;17.83;;;17.13;;
1995;SDS011;38556;47.068;15.408;2023-04-24T09:40:09;17.15;;;16.45;;
1995;SDS011;38556;47.068;15.408;2023-04-24T09:42:43;17.67;;;16.90;;
1995;SDS011;38556;47.068;15.408;2023-04-24T09:45:12;16.25;;;15.55;;
1995;SDS011;38556;47.068;15.408;2023-04-24T09:47:40;17.13;;;16.42;;
1995;SDS011;38556;47.068;15.408;2023-04-24T09:50:09;17.20;;;16.50;;
1995;SDS011;38556;47.068;15.408;2023-04-24T09:52:39;17.70;;;16.90;;
1995;SDS011;38556;47.068;15.408;2023-04-24T09:55:15;17.17;;;16.48;;
1995;SDS011;38556;47.068;15.408;2023-04-24T09:57:49;17.10;;;16.40;;
1995;SDS011;38556;47.068;15.408;2023-04-24T10:00:22;17.65;;;16.95;;
1995;SDS011;38556;47.068;15.408;2023-04-24T10:02:55;17.58;;;16.80;;
1995;SDS011;38556;47.068;15.408;2023-04-24T10:05:23;18.42;;;17.63;;
1995;SDS011;38556;47.068;15.408;2023-04-24T10:07:55;16.48;;;15.88;;
1995;SDS011;38556;47.068;15.408;2023-04-24T10:10:24;17.02;;;16.33;;
1995;SDS011;38556;47.068;15.408;2023-04-24T10:12:52;17.10;;;16.40;;
1995;SDS011;38556;47.068;15.408;2023-04-24T10:15:19;17.30;;;16.60;;
1995;SDS011;38556;47.068;15.408;2023-04-24T10:17:48;17.20;;;16.50;;
1995;SDS011;38556;47.068;15.408;2023-04-24T10:20:21;16.75;;;16.13;;
1995;SDS011;38556;47.068;15.408;2023-04-24T10:22:50;16.70;;;16.00;;
1995;SDS011;38556;47.068;15.408;2023-04-24T10:25:19;16.83;;;16.13;;
1995;SDS011;38556;47.068;15.408;2023-04-24T10:27:49;15.90;;;15.30;;
1995;SDS011;38556;47.068;15.408;2023-04-24T10:30:18;16.60;;;15.90;;
1995;SDS011;38556;47.068;15.408;2023-04-24T10:32:46;16.67;;;15.88;;
1995;SDS011;38556;47.068;15.408;2023-04-24T10:35:14;16.27;;;15.57;;
1995;SDS011;38556;47.068;15.408;2023-04-24T10:37:45;17.17;;;16.38;;
1995;SDS011;38556;47.068;15.408;2023-04-24T10:40:16;16.85;;;16.15;;
1995;SDS011;38556;47.068;15.408;2023-04-24T10:42:46;16.80;;;16.10;;
1995;SDS011;38556;47.068;15.408;2023-04-24T10:45:18;17.30;;;16.48;;
1995;SDS011;38556;47.068;15.408;2023-04-24T10:47:51;17.80;;;17.00;;
1995;SDS011;38556;47.068;15.408;2023-04-24T10:50:26;17.80;;;17.00;;
1995;SDS011;38556;47.068;15.408;2023-04-24T10:53:04;18.55;;;17.50;;
1995;SDS011;38556;47.068;15.408;2023-04-24T10:55:46;17.80;;;17.00;;
1995;SDS011;38556;47.068;15.408;2023-04-24T10:58:16;17.70;;;16.90;;
1995;SDS011;38556;47.068;15.408;2023-04-24T11:00:55;17.70;;;16.90;;
1995;SDS011;38556;47.068;15.408;2023-04-24T11:03:24;18.65;;;17.55;;
1995;SDS011;38556;47.068;15.408;2023-04-24T11:05:55;18.10;;;17.20;;
1995;SDS011;38556;47.068;15.408;2023-04-24T11:08:25;18.20;;;17.40;;
1995;SDS011;38556;47.068;15.408;2023-04-24T11:11:00;17.27;;;16.52;;
1995;SDS011;38556;47.068;15.408;2023-04-24T11:16:32;17.55;;;16.85;;
1995;SDS011;38556;47.068;15.408;2023-04-24T11:19:01;18.70;;;17.60;;
1995;SDS011;38556;47.068;15.408;2023-04-24T11:21:38;17.70;;;16.55;;
1995;SDS011;38556;47.068;15.408;2023-04-24T11:24:23;17.92;;;16.83;;
1995;SDS011;38556;47.068;15.408;2023-04-24T11:26:52;17.52;;;16.73;;
1995;SDS011;38556;47.068;15.408;2023-04-24T11:29:22;16.58;;;15.88;;
1995;SDS011;38556;47.068;15.408;2023-04-24T11:32:14;17.40;;;16.60;;
1995;SDS011;38556;47.068;15.408;2023-04-24T11:34:49;17.00;;;16.30;;
1995;SDS011;38556;47.068;15.408;2023-04-24T11:37:17;17.70;;;16.90;;
1995;SDS011;38556;47.068;15.408;2023-04-24T11:39:45;17.00;;;16.30;;
1995;SDS011;38556;47.068;15.408;2023-04-24T11:42:13;17.35;;;16.63;;
1995;SDS011;38556;47.068;15.408;2023-04-24T11:44:43;16.60;;;15.90;;
1995;SDS011;38556;47.068;15.408;2023-04-24T11:47:12;16.95;;;16.15;;
1995;SDS011;38556;47.068;15.408;2023-04-24T11:49:40;17.85;;;16.80;;
1995;SDS011;38556;47.068;15.408;2023-04-24T11:52:07;16.50;;;15.70;;
1995;SDS011;38556;47.068;15.408;2023-04-24T11:54:36;17.17;;;16.48;;
1995;SDS011;38556;47.068;15.408;2023-04-24T11:57:03;17.67;;;16.65;;
1995;SDS011;38556;47.068;15.408;2023-04-24T11:59:35;16.85;;;16.15;;
1995;SDS011;38556;47.068;15.408;2023-04-24T12:02:05;16.90;;;16.20;;
1995;SDS011;38556;47.068;15.408;2023-04-24T12:04:39;17.10;;;16.40;;
1995;SDS011;38556;47.068;15.408;2023-04-24T12:07:07;16.90;;;16.20;;
1995;SDS011;38556;47.068;15.408;2023-04-24T12:09:42;17.15;;;16.35;;
1995;SDS011;38556;47.068;15.408;2023-04-24T12:12:11;17.37;;;16.57;;
1995;SDS011;38556;47.068;15.408;2023-04-24T12:17:27;17.13;;;16.27;;
1995;SDS011;38556;47.068;15.408;2023-04-24T12:19:59;17.48;;;16.67;;
1995;SDS011;38556;47.068;15.408;2023-04-24T12:22:27;16.90;;;16.20;;
1995;SDS011;38556;47.068;15.408;2023-04-24T12:24:56;17.30;;;16.60;;
1995;SDS011;38556;47.068;15.408;2023-04-24T12:27:24;16.73;;;16.02;;
1995;SDS011;38556;47.068;15.408;2023-04-24T12:29:52;17.07;;;16.37;;
1995;SDS011;38556;47.068;15.408;2023-04-24T12:32:20;16.50;;;15.80;;
1995;SDS011;38556;47.068;15.408;2023-04-24T12:34:50;17.50;;;16.53;;
1995;SDS011;38556;47.068;15.408;2023-04-24T12:37:17;16.50;;;15.80;;
1995;SDS011;38556;47.068;15.408;2023-04-24T12:40:01;17.93;;;17.13;;
1995;SDS011;38556;47.068;15.408;2023-04-24T12:42:31;17.17;;;16.37;;
1995;SDS011;38556;47.068;15.408;2023-04-24T12:44:59;17.27;;;16.57;;
1995;SDS011;38556;47.068;15.408;2023-04-24T12:47:30;17.57;;;16.77;;
1995;SDS011;38556;47.068;15.408;2023-04-24T12:49:59;17.02;;;16.23;;
1995;SDS011;38556;47.068;15.408;2023-04-24T12:52:28;16.60;;;15.70;;
1995;SDS011;38556;47.068;15.408;2023-04-24T12:54:57;16.40;;;15.70;;
1995;SDS011;38556;47.068;15.408;2023-04-24T12:57:25;17.30;;;16.50;;
1995;SDS011;38556;47.068;15.408;2023-04-24T12:59:54;16.90;;;16.20;;
1995;SDS011;38556;47.068;15.408;2023-04-24T13:02:21;17.17;;;16.30;;
1995;SDS011;38556;47.068;15.408;2023-04-24T13:04:49;16.83;;;16.13;;
1995;SDS011;38556;47.068;15.408;2023-04-24T13:07:18;16.00;;;15.40;;
1995;SDS011;38556;47.068;15.408;2023-04-24T13:09:45;17.37;;;16.57;;
1995;SDS011;38556;47.068;15.408;2023-04-24T13:12:14;19.00;;;17.90;;
1995;SDS011;38556;47.068;15.408;2023-04-24T13:14:41;17.37;;;16.57;;
1995;SDS011;38556;47.068;15.408;2023-04-24T13:17:09;18.00;;;17.10;;
1995;SDS011;38556;47.068;15.408;2023-04-24T13:19:38;17.50;;;16.67;;
1995;SDS011;38556;47.068;15.408;2023-04-24T13:22:06;17.60;;;16.90;;
1995;SDS011;38556;47.068;15.408;2023-04-24T13:24:36;16.10;;;15.50;;
1995;SDS011;38556;47.068;15.408;2023-04-24T13:27:05;16.93;;;15.93;;
1995;SDS011;38556;47.068;15.408;2023-04-24T13:29:32;16.47;;;15.87;;
1995;SDS011;38556;47.068;15.408;2023-04-24T13:32:00;17.40;;;16.70;;
1995;SDS011;38556;47.068;15.408;2023-04-24T13:34:27;17.20;;;16.50;;
1995;SDS011;38556;47.068;15.408;2023-04-24T13:36:55;17.80;;;17.00;;
1995;SDS011;38556;47.068;15.408;2023-04-24T13:39:24;19.33;;;18.33;;
1995;SDS011;38556;47.068;15.408;2023-04-24T13:41:53;18.63;;;17.63;;
1995;SDS011;38556;47.068;15.408;2023-04-24T13:44:22;17.20;;;16.50;;
1995;SDS011;38556;47.068;15.408;2023-04-24T13:46:50;17.00;;;16.20;;
1995;SDS011;38556;47.068;15.408;2023-04-24T13:49:19;17.50;;;16.70;;
1995;SDS011;38556;47.068;15.408;2023-04-24T13:51:47;17.20;;;16.50;;
1995;SDS011;38556;47.068;15.408;2023-04-24T13:54:14;16.63;;;15.77;;
1995;SDS011;38556;47.068;15.408;2023-04-24T13:56:42;18.73;;;17.57;;
1995;SDS011;38556;47.068;15.408;2023-04-24T13:59:11;17.30;;;16.60;;
1995;SDS011;38556;47.068;15.408;2023-04-24T14:01:39;17.57;;;16.87;;
1995;SDS011;38556;47.068;15.408;2023-04-24T14:04:06;17.63;;;16.93;;
1995;SDS011;38556;47.068;15.408;2023-04-24T14:06:33;19.53;;;17.90;;
1995;SDS011;38556;47.068;15.408;2023-04-24T14:09:01;17.60;;;16.90;;
1995;SDS011;38556;47.068;15.408;2023-04-24T14:11:28;17.07;;;16.33;;
1995;SDS011;38556;47.068;15.408;2023-04-24T14:13:56;17.70;;;16.80;;
1995;SDS011;38556;47.068;15.408;2023-04-24T14:16:25;18.10;;;17.40;;
1995;SDS011;38556;47.068;15.408;2023-04-24T14:18:52;18.60;;;17.63;;
1995;SDS011;38556;47.068;15.408;2023-04-24T14:21:20;17.93;;;17.10;;
1995;SDS011;38556;47.068;15.408;2023-04-24T14:23:47;18.30;;;17.30;;
1995;SDS011;38556;47.068;15.408;2023-04-24T14:26:14;17.73;;;17.03;;
1995;SDS011;38556;47.068;15.408;2023-04-24T14:28:41;18.10;;;17.30;;
1995;SDS011;38556;47.068;15.408;2023-04-24T14:31:09;18.27;;;17.37;;
1995;SDS011;38556;47.068;15.408;2023-04-24T14:33:37;17.80;;;17.10;;